Time;durP1;ratioP1;P1;durP2;ratioP2;P2;SDS_P1;SDS_P2;PMS_P1;PMS_P2;Temp;Humidity;BMP_temperature;BMP_pressure;BME280_temperature;BME280_humidity;BME280_pressure;Samples;Min_cycle;Max_cycle;Signal;HPM_P1;HPM_P2
2023/03/09 00:00:21;;;;;;;12.63;5.78;;;;;;;1.08;100.00;98442.72;5067208;29;20491;-77
2023/03/09 00:02:51;;;;;;;12.18;5.68;;;;;;;1.07;100.00;98425.59;5069128;29;20046;-77
2023/03/09 00:05:22;;;;;;;12.07;5.93;;;;;;;1.09;100.00;98428.97;5078163;29;20036;-78
2023/03/09 00:07:54;;;;;;;14.43;6.53;;;;;;;1.07;100.00;98441.84;5085455;29;20079;-77
2023/03/09 00:10:24;;;;;;;14.38;6.28;;;;;;;1.02;100.00;98436.03;5083537;29;20203;-77
2023/03/09 00:12:55;;;;;;;10.75;5.72;;;;;;;1.00;100.00;98432.69;5065993;29;20040;-77
2023/03/09 00:15:25;;;;;;;13.68;6.75;;;;;;;0.99;100.00;98427.56;5075276;29;20054;-77
2023/03/09 00:17:55;;;;;;;14.05;6.45;;;;;;;0.99;100.00;98425.84;5077438;29;20088;-76
2023/03/09 00:20:25;;;;;;;12.63;6.15;;;;;;;0.89;100.00;98441.63;5060910;29;20028;-78
2023/03/09 00:22:56;;;;;;;13.05;6.18;;;;;;;0.96;100.00;98448.22;5078171;29;20058;-77
2023/03/09 00:25:28;;;;;;;12.82;6.43;;;;;;;0.91;100.00;98442.41;5080586;29;20047;-77
2023/03/09 00:27:58;;;;;;;15.10;6.82;;;;;;;0.90;100.00;98458.72;5076504;29;20501;-77
2023/03/09 00:30:29;;;;;;;13.07;5.95;;;;;;;1.06;100.00;98458.19;5075927;29;20127;-77
2023/03/09 00:32:59;;;;;;;15.10;7.00;;;;;;;0.95;100.00;98474.84;5082192;29;20157;-77
2023/03/09 00:35:29;;;;;;;15.93;6.63;;;;;;;0.93;100.00;98461.19;5085303;29;20114;-76
2023/03/09 00:37:59;;;;;;;14.90;6.40;;;;;;;0.90;100.00;98459.53;5079297;29;20030;-77
2023/03/09 00:40:30;;;;;;;14.02;6.72;;;;;;;0.87;100.00;98441.66;5081497;29;20028;-77
2023/03/09 00:43:00;;;;;;;14.50;6.95;;;;;;;0.86;100.00;98423.72;5061884;29;20490;-76
2023/03/09 00:45:30;;;;;;;15.93;7.28;;;;;;;0.89;100.00;98423.63;5076713;29;20214;-76
2023/03/09 00:48:01;;;;;;;15.75;7.45;;;;;;;0.92;100.00;98415.81;5076920;29;20024;-76
2023/03/09 00:50:31;;;;;;;15.25;6.97;;;;;;;0.91;100.00;98430.38;5074266;29;20027;-77
2023/03/09 00:53:03;;;;;;;16.83;7.60;;;;;;;0.87;100.00;98430.56;5081816;29;20039;-77
2023/03/09 00:55:33;;;;;;;18.20;7.60;;;;;;;0.86;100.00;98419.41;5077831;29;20031;-76
2023/03/09 00:58:03;;;;;;;17.33;7.50;;;;;;;0.85;100.00;98412.59;5081549;29;20035;-77
2023/03/09 01:00:34;;;;;;;16.67;7.10;;;;;;;0.91;100.00;98401.28;5083926;29;20040;-77
2023/03/09 01:03:04;;;;;;;19.33;7.70;;;;;;;0.83;100.00;98410.94;5062557;29;20083;-74
2023/03/09 01:05:36;;;;;;;17.38;7.10;;;;;;;0.76;100.00;98410.28;5075395;29;20087;-77
2023/03/09 01:08:06;;;;;;;16.40;6.85;;;;;;;0.74;100.00;98409.50;5079206;29;20611;-77
2023/03/09 01:10:41;;;;;;;17.55;7.63;;;;;;;0.70;100.00;98402.78;5078286;29;20258;-77
2023/03/09 01:13:11;;;;;;;16.05;7.05;;;;;;;0.73;100.00;98396.72;5077379;29;20091;-75
2023/03/09 01:15:47;;;;;;;17.77;7.28;;;;;;;0.71;100.00;98394.19;5078842;29;20040;-73
2023/03/09 01:18:18;;;;;;;16.38;6.97;;;;;;;0.70;100.00;98401.97;5090031;29;20060;-77
2023/03/09 01:20:48;;;;;;;16.95;6.55;;;;;;;0.72;100.00;98405.31;5078564;29;20055;-73
2023/03/09 01:23:19;;;;;;;16.02;7.30;;;;;;;0.70;100.00;98400.22;5074827;29;20038;-76
2023/03/09 01:25:49;;;;;;;17.52;6.93;;;;;;;0.72;100.00;98395.88;5081775;29;20123;-77
2023/03/09 01:28:20;;;;;;;17.17;6.68;;;;;;;0.79;100.00;98397.38;5081466;29;20027;-77
2023/03/09 01:30:50;;;;;;;16.50;7.47;;;;;;;0.75;100.00;98394.94;5082055;29;20504;-78
2023/03/09 01:33:20;;;;;;;17.58;7.88;;;;;;;0.74;100.00;98386.38;5080115;29;20566;-77
2023/03/09 01:35:50;;;;;;;16.42;7.93;;;;;;;0.75;100.00;98374.38;5079733;29;20284;-75
2023/03/09 01:38:21;;;;;;;20.40;8.82;;;;;;;0.70;100.00;98374.53;5081539;29;20438;-77
2023/03/09 01:40:51;;;;;;;20.92;8.45;;;;;;;0.69;100.00;98377.16;5079517;29;20072;-76
2023/03/09 01:43:42;;;;;;;18.27;7.85;;;;;;;0.73;100.00;98377.00;5079064;29;20075;-77
2023/03/09 01:46:23;;;;;;;21.38;8.55;;;;;;;0.68;100.00;98365.19;5080899;29;20658;-73
2023/03/09 01:49:18;;;;;;;18.13;8.25;;;;;;;0.72;100.00;98359.06;5079871;29;20138;-77
2023/03/09 01:52:03;;;;;;;19.92;8.45;;;;;;;0.72;100.00;98365.03;5072065;29;20513;-76
2023/03/09 01:54:41;;;;;;;18.75;7.88;;;;;;;0.68;100.00;98354.91;5077964;29;20406;-77
2023/03/09 01:57:30;;;;;;;16.80;7.90;;;;;;;0.70;100.00;98340.31;5079738;29;20063;-77
2023/03/09 02:00:07;;;;;;;15.52;7.55;;;;;;;0.63;100.00;98337.09;5066780;29;20582;-76
2023/03/09 02:02:40;;;;;;;15.63;7.75;;;;;;;0.66;100.00;98334.41;5076599;29;20062;-77
2023/03/09 02:05:14;;;;;;;18.80;7.05;;;;;;;0.66;100.00;98336.13;5081102;29;20034;-77
2023/03/09 02:07:48;;;;;;;15.07;6.50;;;;;;;0.62;100.00;98332.84;5084207;29;20067;-76
2023/03/09 02:10:28;;;;;;;17.60;7.28;;;;;;;0.66;100.00;98328.41;5082363;29;20020;-77
2023/03/09 02:13:08;;;;;;;15.13;6.57;;;;;;;0.64;100.00;98338.75;5079240;29;20066;-77
2023/03/09 02:15:39;;;;;;;13.75;6.43;;;;;;;0.64;100.00;98336.19;5081073;29;20044;-78
2023/03/09 02:18:09;;;;;;;15.00;6.57;;;;;;;0.67;100.00;98335.22;5080484;29;20420;-77
2023/03/09 02:21:12;;;;;;;14.35;6.45;;;;;;;0.64;100.00;98340.47;5080812;29;20045;-74
2023/03/09 02:24:06;;;;;;;13.07;6.18;;;;;;;0.59;100.00;98327.75;5057040;29;20135;-77
2023/03/09 02:26:49;;;;;;;13.80;6.38;;;;;;;0.55;100.00;98326.19;5079297;29;20166;-76
2023/03/09 02:29:19;;;;;;;15.00;6.13;;;;;;;0.56;100.00;98312.47;5063427;29;20036;-76
2023/03/09 02:31:50;;;;;;;15.82;6.25;;;;;;;0.62;100.00;98321.69;5062682;29;20490;-75
2023/03/09 02:34:20;;;;;;;15.07;7.05;;;;;;;0.58;100.00;98322.69;5079247;29;20036;-78
2023/03/09 02:36:50;;;;;;;13.00;5.75;;;;;;;0.61;100.00;98320.88;5081335;29;20028;-77
2023/03/09 02:39:44;;;;;;;13.45;6.03;;;;;;;0.61;100.00;98325.16;5082282;29;20024;-77
2023/03/09 02:42:16;;;;;;;12.60;5.50;;;;;;;0.58;100.00;98320.94;5083796;29;20056;-76
2023/03/09 02:44:48;;;;;;;14.75;6.20;;;;;;;0.57;100.00;98336.44;5079087;29;20031;-77
2023/03/09 02:47:21;;;;;;;12.35;5.97;;;;;;;0.54;100.00;98329.66;5080145;29;20115;-77
2023/03/09 02:49:51;;;;;;;13.07;5.70;;;;;;;0.63;100.00;98337.09;5079840;29;20032;-77
2023/03/09 02:52:22;;;;;;;13.85;6.45;;;;;;;0.57;100.00;98344.97;5084575;29;20388;-77
2023/03/09 02:54:52;;;;;;;14.90;6.63;;;;;;;0.56;100.00;98347.59;5079667;29;20330;-77
2023/03/09 02:57:22;;;;;;;15.00;6.38;;;;;;;0.59;100.00;98348.31;5079784;29;20039;-75
2023/03/09 02:59:53;;;;;;;13.63;5.85;;;;;;;0.61;100.00;98358.56;5080079;29;20123;-77
2023/03/09 03:02:23;;;;;;;13.35;5.88;;;;;;;0.61;100.00;98361.97;5073895;29;20032;-77
2023/03/09 03:04:54;;;;;;;13.32;6.53;;;;;;;0.59;100.00;98368.88;5074228;29;20032;-77
2023/03/09 03:07:25;;;;;;;15.25;6.85;;;;;;;0.67;100.00;98374.63;5081706;29;20031;-77
2023/03/09 03:09:55;;;;;;;13.27;6.13;;;;;;;0.68;100.00;98370.31;5079933;29;20522;-77
2023/03/09 03:12:25;;;;;;;13.15;6.07;;;;;;;0.67;100.00;98377.19;5081205;29;20024;-77
2023/03/09 03:14:57;;;;;;;15.05;6.22;;;;;;;0.63;100.00;98378.19;5085505;29;20059;-77
2023/03/09 03:17:27;;;;;;;14.95;6.80;;;;;;;0.69;100.00;98365.13;5079381;29;20043;-77
2023/03/09 03:19:58;;;;;;;14.15;5.85;;;;;;;0.63;100.00;98374.75;5080004;29;20079;-76
2023/03/09 03:22:29;;;;;;;16.00;7.13;;;;;;;0.60;100.00;98368.00;5079572;29;20059;-77
2023/03/09 03:24:59;;;;;;;15.75;6.55;;;;;;;0.61;100.00;98372.25;5079021;29;20127;-77
2023/03/09 03:27:29;;;;;;;14.48;6.75;;;;;;;0.62;100.00;98373.94;5078799;29;20036;-77
2023/03/09 03:30:00;;;;;;;15.73;7.43;;;;;;;0.55;100.00;98377.56;5078867;29;20036;-77
2023/03/09 03:32:30;;;;;;;14.65;7.03;;;;;;;0.57;100.00;98380.09;5078473;29;20032;-77
2023/03/09 03:35:01;;;;;;;15.70;7.10;;;;;;;0.63;100.00;98383.31;5078434;29;20028;-77
2023/03/09 03:37:31;;;;;;;15.65;7.05;;;;;;;0.61;100.00;98382.53;5080957;29;20059;-76
2023/03/09 03:40:06;;;;;;;15.10;6.82;;;;;;;0.63;100.00;98396.19;5079168;29;20028;-76
2023/03/09 03:42:36;;;;;;;17.70;6.78;;;;;;;0.55;100.00;98400.69;5079020;29;20434;-76
2023/03/09 03:45:07;;;;;;;16.42;7.20;;;;;;;0.54;100.00;98400.75;5077311;29;20039;-76
2023/03/09 03:47:37;;;;;;;21.10;7.40;;;;;;;0.55;100.00;98398.13;5078397;29;20123;-77
2023/03/09 03:50:08;;;;;;;17.83;7.65;;;;;;;0.52;100.00;98393.09;5079442;29;20036;-77
2023/03/09 03:52:38;;;;;;;15.10;6.70;;;;;;;0.55;100.00;98387.84;5078053;29;20899;-76
2023/03/09 03:55:09;;;;;;;16.05;6.75;;;;;;;0.55;100.00;98394.72;5078167;29;20418;-77
2023/03/09 03:57:39;;;;;;;19.65;8.00;;;;;;;0.56;100.00;98393.84;5078606;29;20059;-77
2023/03/09 04:00:10;;;;;;;17.55;7.35;;;;;;;0.54;100.00;98399.00;5061399;29;20036;-76
2023/03/09 04:02:41;;;;;;;18.40;7.80;;;;;;;0.52;100.00;98400.78;5075524;29;20485;-77
2023/03/09 04:05:11;;;;;;;20.13;7.65;;;;;;;0.53;100.00;98411.94;5078263;29;20034;-76
2023/03/09 04:07:42;;;;;;;22.23;8.15;;;;;;;0.56;100.00;98410.06;5081765;29;20413;-77
2023/03/09 04:10:12;;;;;;;23.15;8.27;;;;;;;0.55;100.00;98403.25;5079849;29;20095;-76
2023/03/09 04:12:43;;;;;;;21.52;8.75;;;;;;;0.56;100.00;98409.25;5080931;29;20127;-76
2023/03/09 04:15:13;;;;;;;23.10;8.82;;;;;;;0.65;100.00;98420.09;5077787;29;20032;-76
2023/03/09 04:17:43;;;;;;;23.85;8.93;;;;;;;0.66;100.00;98437.19;5077509;29;20042;-76
2023/03/09 04:20:14;;;;;;;22.40;8.23;;;;;;;0.72;100.00;98439.56;5078621;29;20036;-76
2023/03/09 04:22:48;;;;;;;22.45;9.75;;;;;;;0.63;100.00;98439.00;5084495;29;20520;-77
2023/03/09 04:25:18;;;;;;;21.58;8.52;;;;;;;0.73;100.00;98442.97;5074318;29;20079;-76
2023/03/09 04:27:48;;;;;;;23.48;8.70;;;;;;;0.72;100.00;98442.13;5076768;29;20028;-76
2023/03/09 04:30:20;;;;;;;21.20;8.32;;;;;;;0.61;100.00;98436.50;5078847;29;20060;-76
2023/03/09 04:32:50;;;;;;;23.83;9.60;;;;;;;0.67;100.00;98436.28;5077709;29;20036;-77
2023/03/09 04:35:20;;;;;;;21.08;8.73;;;;;;;0.75;100.00;98441.19;5077689;29;20039;-76
2023/03/09 04:37:51;;;;;;;31.38;10.23;;;;;;;0.81;100.00;98449.56;5080801;29;20616;-76
2023/03/09 04:40:21;;;;;;;20.27;8.75;;;;;;;0.79;100.00;98464.19;5068845;29;20027;-77
2023/03/09 04:42:52;;;;;;;22.77;8.90;;;;;;;0.90;100.00;98462.13;5077556;29;20457;-76
2023/03/09 04:45:22;;;;;;;21.05;9.40;;;;;;;0.85;100.00;98464.00;5076341;29;20357;-76
2023/03/09 04:47:53;;;;;;;20.48;8.63;;;;;;;0.83;100.00;98470.91;5076626;29;20063;-76
2023/03/09 04:50:23;;;;;;;25.38;9.65;;;;;;;0.92;100.00;98456.94;5079836;29;20096;-76
2023/03/09 04:52:55;;;;;;;25.40;9.85;;;;;;;0.81;100.00;98452.13;5076324;29;20498;-76
2023/03/09 04:55:25;;;;;;;25.38;9.60;;;;;;;0.82;100.00;98461.53;5079349;29;20035;-77
2023/03/09 04:57:56;;;;;;;22.17;9.07;;;;;;;0.82;100.00;98469.25;5081396;29;20099;-76
2023/03/09 05:00:26;;;;;;;23.67;9.90;;;;;;;0.81;100.00;98469.28;5082030;29;20027;-77
2023/03/09 05:02:56;;;;;;;25.17;9.25;;;;;;;0.81;100.00;98477.84;5081404;29;20095;-75
2023/03/09 05:05:27;;;;;;;21.50;9.35;;;;;;;0.92;100.00;98491.19;5071262;29;20119;-76
2023/03/09 05:07:57;;;;;;;23.95;10.00;;;;;;;0.92;100.00;98506.59;5076913;29;20468;-73
2023/03/09 05:10:27;;;;;;;24.95;9.93;;;;;;;0.76;100.00;98496.84;5076457;29;20031;-73
2023/03/09 05:12:57;;;;;;;20.85;9.38;;;;;;;0.85;100.00;98502.56;5080847;29;20039;-76
2023/03/09 05:15:28;;;;;;;22.73;9.63;;;;;;;0.86;100.00;98506.81;5078609;29;20376;-77
2023/03/09 05:17:58;;;;;;;23.52;10.20;;;;;;;0.78;100.00;98519.06;5087141;29;20125;-77
2023/03/09 05:20:28;;;;;;;24.58;9.40;;;;;;;0.78;100.00;98513.06;5082714;29;20394;-76
2023/03/09 05:23:00;;;;;;;19.73;9.15;;;;;;;0.77;100.00;98513.94;5078108;29;20048;-77
2023/03/09 05:25:31;;;;;;;22.95;9.57;;;;;;;0.71;100.00;98514.16;5078851;29;20074;-75
2023/03/09 05:28:01;;;;;;;20.85;8.93;;;;;;;0.75;100.00;98508.84;5080565;29;20063;-76
2023/03/09 05:30:32;;;;;;;20.70;8.88;;;;;;;0.68;100.00;98514.22;5081585;29;20498;-76
2023/03/09 05:33:02;;;;;;;20.63;8.70;;;;;;;0.67;100.00;98515.94;5081080;29;20028;-76
2023/03/09 05:35:32;;;;;;;19.92;8.85;;;;;;;0.71;100.00;98525.25;5081594;29;20032;-76
2023/03/09 05:38:03;;;;;;;20.10;9.32;;;;;;;0.67;100.00;98525.38;5080961;29;20465;-76
2023/03/09 05:40:34;;;;;;;23.38;8.98;;;;;;;0.67;100.00;98525.38;5081423;29;20032;-77
2023/03/09 05:43:05;;;;;;;19.88;8.70;;;;;;;0.63;100.00;98522.06;5080865;29;20249;-77
2023/03/09 05:45:35;;;;;;;23.08;10.13;;;;;;;0.64;100.00;98530.59;5080651;29;20043;-77
2023/03/09 05:48:06;;;;;;;21.58;8.68;;;;;;;0.70;100.00;98531.28;5089750;29;20032;-76
2023/03/09 05:50:37;;;;;;;22.52;9.15;;;;;;;0.73;100.00;98544.03;5082507;29;20040;-76
2023/03/09 05:53:07;;;;;;;20.60;8.88;;;;;;;0.82;100.00;98558.34;5076332;29;20047;-76
2023/03/09 05:55:38;;;;;;;20.42;8.52;;;;;;;0.77;100.00;98552.50;5078253;29;20032;-77
2023/03/09 05:58:08;;;;;;;22.98;8.98;;;;;;;0.86;100.00;98553.06;5064525;29;20119;-76
2023/03/09 06:00:38;;;;;;;21.35;9.13;;;;;;;0.85;100.00;98569.38;5082252;29;20046;-76
2023/03/09 06:03:09;;;;;;;21.90;9.00;;;;;;;0.86;100.00;98573.63;5079197;29;20043;-76
2023/03/09 06:05:39;;;;;;;21.85;9.20;;;;;;;0.84;100.00;98585.69;5062347;29;20046;-76
2023/03/09 06:08:10;;;;;;;20.67;9.18;;;;;;;1.04;100.00;98593.66;5079172;29;20478;-76
2023/03/09 06:10:40;;;;;;;21.48;9.10;;;;;;;0.96;100.00;98590.50;5082455;29;20036;-76
2023/03/09 06:13:11;;;;;;;22.55;9.38;;;;;;;0.87;100.00;98587.34;5087264;29;20032;-73
2023/03/09 06:15:42;;;;;;;22.83;9.45;;;;;;;0.78;100.00;98575.59;5081527;29;20470;-76
2023/03/09 06:18:12;;;;;;;24.25;9.40;;;;;;;0.74;100.00;98579.13;5074827;29;20067;-76
2023/03/09 06:20:43;;;;;;;19.70;7.97;;;;;;;0.81;100.00;98582.34;5072670;29;20469;-77
2023/03/09 06:23:13;;;;;;;19.60;8.15;;;;;;;0.71;100.00;98604.91;5078237;29;20136;-75
2023/03/09 06:25:44;;;;;;;19.75;8.75;;;;;;;0.78;100.00;98595.31;5079825;29;20032;-76
2023/03/09 06:28:14;;;;;;;18.33;8.30;;;;;;;0.90;100.00;98600.94;5079402;29;20202;-76
2023/03/09 06:30:44;;;;;;;19.20;7.85;;;;;;;1.01;100.00;98610.91;5080251;29;20691;-76
2023/03/09 06:33:16;;;;;;;18.73;7.93;;;;;;;1.01;100.00;98613.47;5079111;29;20036;-76
2023/03/09 06:35:46;;;;;;;19.35;8.48;;;;;;;1.18;100.00;98632.69;5079758;29;20047;-76
2023/03/09 06:38:16;;;;;;;20.63;8.68;;;;;;;1.24;100.00;98636.81;5080886;29;20032;-76
2023/03/09 06:40:48;;;;;;;16.90;7.10;;;;;;;1.38;100.00;98632.91;5080183;29;20016;-76
2023/03/09 06:43:19;;;;;;;17.80;7.43;;;;;;;1.21;100.00;98627.44;5071726;29;20380;-73
2023/03/09 06:45:49;;;;;;;16.30;7.22;;;;;;;0.98;100.00;98622.13;5077056;29;20110;-76
2023/03/09 06:48:19;;;;;;;19.77;7.90;;;;;;;1.04;100.00;98627.09;5079032;29;20402;-76
2023/03/09 06:50:49;;;;;;;16.77;7.32;;;;;;;1.18;100.00;98636.97;5080185;29;20040;-76
2023/03/09 06:53:20;;;;;;;17.30;7.38;;;;;;;1.05;100.00;98641.63;5079046;29;20035;-76
2023/03/09 06:55:50;;;;;;;18.23;8.30;;;;;;;1.00;100.00;98647.78;5066863;29;20047;-76
2023/03/09 06:58:20;;;;;;;16.98;7.40;;;;;;;1.02;100.00;98656.28;5079374;29;20027;-76
2023/03/09 07:00:51;;;;;;;16.92;8.07;;;;;;;0.98;100.00;98655.56;5080264;29;20032;-76
2023/03/09 07:03:21;;;;;;;18.20;7.97;;;;;;;1.03;100.00;98658.00;5077712;29;20031;-76
2023/03/09 07:05:51;;;;;;;15.07;7.55;;;;;;;0.99;100.00;98657.25;5077615;29;20379;-77
2023/03/09 07:08:22;;;;;;;19.17;7.55;;;;;;;1.02;100.00;98666.56;5084911;29;20028;-77
2023/03/09 07:10:52;;;;;;;17.42;7.25;;;;;;;1.15;100.00;98668.78;5080387;29;20541;-76
2023/03/09 07:13:23;;;;;;;18.50;7.72;;;;;;;1.27;100.00;98667.56;5078006;29;20024;-76
2023/03/09 07:15:53;;;;;;;15.63;7.00;;;;;;;1.27;100.00;98668.41;5075254;29;20151;-73
2023/03/09 07:18:23;;;;;;;17.52;7.40;;;;;;;1.31;100.00;98670.00;5052049;29;20107;-76
2023/03/09 07:20:53;;;;;;;16.77;7.47;;;;;;;1.32;100.00;98669.13;5050803;29;20088;-77
2023/03/09 07:23:24;;;;;;;14.65;6.55;;;;;;;1.44;100.00;98668.75;5063217;29;20047;-77
2023/03/09 07:25:57;;;;;;;20.25;7.80;;;;;;;1.50;100.00;98672.88;5051812;29;20035;-76
2023/03/09 07:28:28;;;;;;;19.15;7.00;;;;;;;1.44;100.00;98679.03;5048810;29;20103;-76
2023/03/09 07:31:05;;;;;;;14.50;6.63;;;;;;;1.54;100.00;98695.06;5050541;29;20039;-76
2023/03/09 07:33:35;;;;;;;15.30;6.30;;;;;;;1.73;100.00;98702.16;5059530;29;20040;-76
2023/03/09 07:36:07;;;;;;;15.23;7.13;;;;;;;1.64;100.00;98709.34;5048649;29;20021;-76
2023/03/09 07:38:37;;;;;;;14.23;6.68;;;;;;;1.61;100.00;98709.44;5052565;29;20070;-76
2023/03/09 07:41:07;;;;;;;13.90;6.53;;;;;;;1.62;100.00;98711.97;5055361;29;20100;-75
2023/03/09 07:43:43;;;;;;;14.73;6.13;;;;;;;1.65;100.00;98711.03;5061303;29;20264;-75
2023/03/09 07:46:15;;;;;;;12.18;6.25;;;;;;;1.68;100.00;98716.94;5062398;29;20071;-76
2023/03/09 07:48:46;;;;;;;12.85;6.28;;;;;;;1.67;100.00;98719.53;5060510;29;20060;-76
2023/03/09 07:51:16;;;;;;;13.38;6.65;;;;;;;1.68;100.00;98716.06;5048184;29;20025;-76
2023/03/09 07:53:47;;;;;;;11.95;5.65;;;;;;;1.61;100.00;98724.88;5062923;29;20063;-74
2023/03/09 07:56:17;;;;;;;10.95;5.75;;;;;;;1.80;100.00;98739.72;5054348;29;20337;-77
2023/03/09 07:58:51;;;;;;;14.00;6.82;;;;;;;1.74;100.00;98741.66;5051446;29;20076;-76
2023/03/09 08:01:21;;;;;;;12.07;6.30;;;;;;;2.03;100.00;98742.44;5056469;29;20431;-75
2023/03/09 08:03:52;;;;;;;12.15;6.15;;;;;;;1.86;100.00;98750.66;5070682;29;20032;-77
2023/03/09 08:06:23;;;;;;;14.60;6.03;;;;;;;1.71;100.00;98752.88;5045365;29;20460;-76
2023/03/09 08:08:53;;;;;;;17.13;7.00;;;;;;;1.58;100.00;98764.41;5069526;29;20033;-76
2023/03/09 08:11:23;;;;;;;13.43;6.55;;;;;;;1.83;100.00;98768.78;5056640;29;20071;-74
2023/03/09 08:13:54;;;;;;;16.13;6.00;;;;;;;2.04;100.00;98777.59;5042038;29;20033;-76
2023/03/09 08:16:24;;;;;;;12.52;6.28;;;;;;;1.72;100.00;98775.16;5078306;29;20071;-76
2023/03/09 08:18:55;;;;;;;13.13;6.65;;;;;;;1.60;100.00;98777.22;5078821;29;20494;-76
2023/03/09 08:21:25;;;;;;;15.15;7.50;;;;;;;1.72;100.00;98785.44;5078025;29;20067;-73
2023/03/09 08:23:57;;;;;;;14.27;6.30;;;;;;;1.58;100.00;98790.13;5078555;29;20024;-76
2023/03/09 08:26:28;;;;;;;14.55;6.60;;;;;;;1.61;100.00;98791.78;5078911;29;20376;-77
2023/03/09 08:28:59;;;;;;;16.05;7.55;;;;;;;1.70;100.00;98786.34;5085073;29;20438;-76
2023/03/09 08:31:29;;;;;;;15.88;6.85;;;;;;;1.84;100.00;98777.38;5083495;29;20084;-73
2023/03/09 08:34:00;;;;;;;14.65;6.90;;;;;;;1.70;100.00;98766.63;5087433;29;20028;-76
2023/03/09 08:36:30;;;;;;;13.50;6.63;;;;;;;1.75;100.00;98767.31;5077819;29;20040;-76
2023/03/09 08:39:01;;;;;;;14.40;6.72;;;;;;;1.82;100.00;98771.41;5085739;29;20028;-76
2023/03/09 08:41:31;;;;;;;14.45;6.72;;;;;;;1.67;100.00;98782.16;5088130;29;20103;-75
2023/03/09 08:44:01;;;;;;;14.10;6.97;;;;;;;1.84;100.00;98790.25;5079208;29;20036;-75
2023/03/09 08:46:32;;;;;;;15.90;6.55;;;;;;;1.79;100.00;98805.81;5084912;29;20171;-75
2023/03/09 08:49:02;;;;;;;16.30;7.25;;;;;;;1.80;100.00;98793.81;5079836;29;20062;-75
2023/03/09 08:51:33;;;;;;;15.48;6.63;;;;;;;1.81;100.00;98810.94;5083738;29;20027;-75
2023/03/09 08:54:03;;;;;;;15.40;6.82;;;;;;;1.82;100.00;98817.78;5086863;29;20036;-75
2023/03/09 08:56:33;;;;;;;14.38;6.30;;;;;;;1.99;100.00;98815.53;5081004;29;20067;-76
2023/03/09 08:59:03;;;;;;;14.27;6.65;;;;;;;2.00;100.00;98824.94;5081071;29;20105;-75
2023/03/09 09:01:34;;;;;;;14.85;7.25;;;;;;;1.84;100.00;98829.69;5083375;29;20086;-75
2023/03/09 09:04:04;;;;;;;12.70;6.82;;;;;;;1.84;100.00;98824.53;5080626;29;20027;-74
2023/03/09 09:06:35;;;;;;;17.65;6.95;;;;;;;1.90;100.00;98833.81;5079374;29;20130;-75
2023/03/09 09:09:05;;;;;;;13.07;5.97;;;;;;;1.69;100.00;98831.88;5081503;29;20063;-76
2023/03/09 09:11:36;;;;;;;15.27;7.28;;;;;;;1.78;100.00;98831.59;5072482;29;20507;-76
2023/03/09 09:14:06;;;;;;;16.35;7.22;;;;;;;1.59;100.00;98822.69;5082156;29;20410;-75
2023/03/09 09:16:36;;;;;;;16.33;7.43;;;;;;;1.54;100.00;98824.56;5086209;29;20670;-75
2023/03/09 09:19:07;;;;;;;14.35;7.00;;;;;;;1.67;100.00;98828.50;5090191;29;20464;-76
2023/03/09 09:21:38;;;;;;;19.90;7.93;;;;;;;1.69;100.00;98837.00;5082999;29;20052;-75
2023/03/09 09:24:08;;;;;;;14.98;6.85;;;;;;;1.74;100.00;98834.31;5090564;29;20028;-75
2023/03/09 09:26:40;;;;;;;16.80;7.43;;;;;;;1.89;100.00;98845.00;5079477;29;20035;-75
2023/03/09 09:29:11;;;;;;;15.77;6.95;;;;;;;1.81;100.00;98852.94;5073178;29;20027;-74
2023/03/09 09:31:42;;;;;;;15.25;7.28;;;;;;;1.87;100.00;98859.66;5075007;29;20596;-76
2023/03/09 09:34:12;;;;;;;15.20;7.15;;;;;;;1.87;100.00;98857.09;5070837;29;20035;-75
2023/03/09 09:36:42;;;;;;;17.25;7.78;;;;;;;1.82;100.00;98862.34;5092180;29;20039;-75
2023/03/09 09:39:13;;;;;;;19.70;7.57;;;;;;;1.87;100.00;98867.38;5089328;29;20027;-76
2023/03/09 09:41:57;;;;;;;15.50;7.88;;;;;;;1.82;100.00;98874.41;5080961;29;20028;-75
2023/03/09 09:44:35;;;;;;;14.25;7.40;;;;;;;1.81;100.00;98870.16;5083182;29;20379;-75
2023/03/09 09:47:13;;;;;;;17.30;8.18;;;;;;;1.82;100.00;98876.97;5082738;29;20043;-75
2023/03/09 09:49:46;;;;;;;18.45;7.57;;;;;;;1.85;100.00;98869.16;5095829;29;20110;-76
2023/03/09 09:52:19;;;;;;;15.85;7.28;;;;;;;2.00;100.00;98859.25;5081305;29;20032;-76
2023/03/09 09:55:00;;;;;;;17.58;7.68;;;;;;;2.05;100.00;98865.16;5085561;29;20103;-77
2023/03/09 09:57:42;;;;;;;16.02;7.65;;;;;;;2.08;100.00;98871.91;5082817;29;20040;-76
2023/03/09 10:00:22;;;;;;;17.65;7.65;;;;;;;2.20;100.00;98881.88;5090210;29;20028;-76
2023/03/09 10:03:07;;;;;;;18.23;8.00;;;;;;;2.20;100.00;98881.88;5088268;29;20020;-76
2023/03/09 10:06:20;;;;;;;13.80;5.40;;;;;;;2.08;100.00;98877.94;5085608;29;20036;-76
2023/03/09 10:08:56;;;;;;;19.85;8.45;;;;;;;2.16;100.00;98883.69;5088048;29;20028;-77
2023/03/09 10:11:36;;;;;;;14.60;7.55;;;;;;;2.33;100.00;98888.34;5068679;29;20056;-74
2023/03/09 10:14:18;;;;;;;15.70;7.32;;;;;;;2.26;100.00;98899.72;5093954;29;20057;-75
2023/03/09 10:17:06;;;;;;;15.27;6.97;;;;;;;2.50;100.00;98880.97;5087272;29;20167;-76
2023/03/09 10:19:38;;;;;;;15.30;7.75;;;;;;;2.37;100.00;98877.88;5083444;29;20024;-76
2023/03/09 10:22:12;;;;;;;18.48;7.78;;;;;;;2.39;100.00;98883.00;5079464;29;20029;-77
2023/03/09 10:24:50;;;;;;;16.08;7.63;;;;;;;2.46;100.00;98881.91;5087788;29;20084;-77
2023/03/09 10:27:29;;;;;;;17.38;7.28;;;;;;;2.49;100.00;98884.44;5085394;29;20024;-76
2023/03/09 10:30:02;;;;;;;18.52;7.63;;;;;;;2.62;100.00;98889.16;5083066;29;20024;-76
2023/03/09 10:32:52;;;;;;;17.92;7.43;;;;;;;2.90;100.00;98892.56;5069678;29;20071;-77
2023/03/09 10:35:50;;;;;;;16.13;7.75;;;;;;;2.81;100.00;98885.09;5073991;29;20410;-76
2023/03/09 10:38:23;;;;;;;15.18;7.30;;;;;;;3.09;100.00;98890.22;5078806;29;20028;-78
2023/03/09 10:40:55;;;;;;;16.67;7.55;;;;;;;3.12;100.00;98890.13;5071844;29;20109;-76
2023/03/09 10:43:31;;;;;;;14.23;7.00;;;;;;;2.81;100.00;98899.72;5071320;29;20071;-75
2023/03/09 10:46:20;;;;;;;15.40;7.00;;;;;;;3.02;100.00;98896.47;5086088;29;20039;-77
2023/03/09 10:49:09;;;;;;;16.25;7.72;;;;;;;3.21;100.00;98913.88;5071705;29;20114;-78
2023/03/09 10:51:43;;;;;;;14.45;7.03;;;;;;;3.33;100.00;98907.50;5071057;29;20039;-77
2023/03/09 10:54:27;;;;;;;15.88;7.25;;;;;;;3.41;100.00;98920.97;5080009;29;20070;-76
2023/03/09 10:56:57;;;;;;;14.63;7.45;;;;;;;3.36;100.00;98918.53;5077057;29;20036;-77
2023/03/09 10:59:29;;;;;;;13.93;6.82;;;;;;;3.27;100.00;98926.59;5079228;29;20071;-77
2023/03/09 11:02:00;;;;;;;13.23;6.55;;;;;;;3.07;100.00;98933.28;5086025;29;20043;-77
2023/03/09 11:04:36;;;;;;;14.18;7.05;;;;;;;3.08;100.00;98932.41;5074619;29;20402;-78
2023/03/09 11:07:18;;;;;;;13.38;6.82;;;;;;;2.77;100.00;98926.50;5078039;29;20036;-77
2023/03/09 11:09:52;;;;;;;15.23;7.25;;;;;;;2.88;100.00;98929.59;5082103;29;20505;-76
2023/03/09 11:12:33;;;;;;;13.52;7.25;;;;;;;3.02;100.00;98932.59;5071856;29;20315;-75
2023/03/09 11:15:27;;;;;;;14.70;7.10;;;;;;;3.15;100.00;98937.31;5085218;29;20032;-76
2023/03/09 11:17:59;;;;;;;13.30;6.38;;;;;;;3.24;100.00;98944.78;5056524;29;20495;-78
2023/03/09 11:20:33;;;;;;;14.55;7.43;;;;;;;3.16;100.00;98946.72;5066606;29;20039;-77
2023/03/09 11:23:22;;;;;;;14.00;6.85;;;;;;;3.17;100.00;98937.28;5059702;29;20509;-77
2023/03/09 11:26:10;;;;;;;14.70;6.88;;;;;;;3.10;100.00;98940.94;5059471;29;20028;-73
2023/03/09 11:29:04;;;;;;;16.48;7.47;;;;;;;3.09;100.00;98949.56;5065050;29;20047;-77
2023/03/09 11:31:37;;;;;;;16.33;7.15;;;;;;;3.24;100.00;98949.94;5058953;29;20032;-77
2023/03/09 11:34:40;;;;;;;13.77;6.32;;;;;;;3.03;100.00;98965.25;5059104;29;21692;-77
2023/03/09 11:37:36;;;;;;;13.95;7.07;;;;;;;3.18;100.00;98969.94;5034136;29;20410;-75
2023/03/09 11:40:10;;;;;;;13.52;6.40;;;;;;;2.91;100.00;98983.66;5068441;29;20504;-77
2023/03/09 11:42:55;;;;;;;15.40;7.05;;;;;;;3.00;100.00;98970.50;5059527;29;20044;-77
2023/03/09 11:45:29;;;;;;;14.45;6.93;;;;;;;2.92;100.00;98977.63;5058218;29;20028;-77
2023/03/09 11:48:13;;;;;;;13.18;6.82;;;;;;;2.97;100.00;98971.44;5058742;29;20041;-77
2023/03/09 11:50:58;;;;;;;15.60;7.38;;;;;;;3.26;100.00;98967.94;5058236;29;20040;-77